Time,TemperatureF,DewpointF,PressureIn,WindDirection,WindDirectionDegrees,WindSpeedMPH,WindSpeedGustMPH,Humidity,HourlyPrecipIn,Conditions,Clouds,dailyrainin,SoftwareType,DateUTC
2013-07-28 00:02:00,61.0,51.0,29.95,WSW,247,0.0,0.0,70,0.00,,,0.00,,2013-07-28 04:02:00,
2013-07-28 00:12:00,60.0,50.0,29.95,WSW,247,0.0,0.0,70,0.00,,,0.00,,2013-07-28 04:12:00,
2013-07-28 00:22:00,60.0,50.0,29.95,North,-999,-999.0,-999.0,70,0.00,,,0.00,,2013-07-28 04:22:00,
2013-07-28 00:32:00,59.0,49.0,29.95,North,-999,-999.0,-999.0,70,0.00,,,0.00,,2013-07-28 04:32:00,
2013-07-28 00:43:00,58.0,48.0,29.95,North,-999,-999.0,-999.0,70,0.00,,,0.00,,2013-07-28 04:43:00,
2013-07-28 00:53:00,58.0,49.0,29.95,North,-999,-999.0,-999.0,73,0.00,,,0.00,,2013-07-28 04:53:00,
2013-07-28 01:02:00,58.0,49.0,29.95,NW,315,0.0,0.0,73,0.00,,,0.00,,2013-07-28 05:02:00,
2013-07-28 01:12:00,58.0,49.0,29.94,NW,315,0.0,0.0,73,0.00,,,0.00,,2013-07-28 05:12:00,
2013-07-28 01:22:00,58.0,49.0,29.94,NW,315,0.0,0.0,73,0.00,,,0.00,,2013-07-28 05:22:00,
2013-07-28 01:32:00,58.0,49.0,29.94,NW,315,0.0,0.0,73,0.00,,,0.00,,2013-07-28 05:32:00,
2013-07-28 01:43:00,58.0,49.0,29.94,NW,315,0.0,0.0,73,0.00,,,0.00,,2013-07-28 05:43:00,
2013-07-28 01:52:00,58.0,49.0,29.94,NW,315,0.0,0.0,73,0.00,,,0.00,,2013-07-28 05:52:00,
2013-07-28 02:12:00,56.0,49.0,29.94,NW,315,0.0,0.0,78,0.00,,,0.00,,2013-07-28 06:12:00,
2013-07-28 02:22:00,56.0,49.0,29.94,NW,315,0.0,0.0,78,0.00,,,0.00,,2013-07-28 06:22:00,
2013-07-28 02:32:00,56.0,49.0,29.95,NW,315,0.0,0.0,78,0.00,,,0.00,,2013-07-28 06:32:00,
2013-07-28 02:43:00,56.0,49.0,29.95,NW,315,0.0,0.0,78,0.00,,,0.00,,2013-07-28 06:43:00,
2013-07-28 02:52:00,56.0,49.0,29.94,WSW,247,0.0,0.0,78,0.00,,,0.00,,2013-07-28 06:52:00,
2013-07-28 03:02:00,56.0,49.0,29.94,WSW,247,0.0,0.0,78,0.00,,,0.00,,2013-07-28 07:02:00,
2013-07-28 03:12:00,56.0,49.0,29.94,WSW,247,0.0,0.0,78,0.00,,,0.00,,2013-07-28 07:12:00,
2013-07-28 03:23:00,56.0,49.0,29.94,WSW,247,0.0,0.0,78,0.00,,,0.00,,2013-07-28 07:23:00,
2013-07-28 03:32:00,56.0,49.0,29.95,WSW,247,0.0,0.0,78,0.00,,,0.00,,2013-07-28 07:32:00,
2013-07-28 03:43:00,56.0,49.0,29.95,North,-999,-999.0,-999.0,78,0.00,,,0.00,,2013-07-28 07:43:00,
2013-07-28 03:53:00,56.0,49.0,29.95,North,-999,-999.0,-999.0,78,0.00,,,0.00,,2013-07-28 07:53:00,
2013-07-28 04:02:00,56.0,49.0,29.95,North,-999,-999.0,-999.0,78,0.00,,,0.00,,2013-07-28 08:02:00,
2013-07-28 04:12:00,55.0,48.0,29.94,North,-999,-999.0,-999.0,78,0.00,,,0.00,,2013-07-28 08:12:00,
2013-07-28 04:22:00,55.0,48.0,29.94,North,-999,-999.0,-999.0,78,0.00,,,0.00,,2013-07-28 08:22:00,
2013-07-28 04:33:00,55.0,48.0,29.94,North,-999,-999.0,-999.0,78,0.00,,,0.00,,2013-07-28 08:33:00,
2013-07-28 04:42:00,55.0,48.0,29.94,North,-999,-999.0,-999.0,78,0.00,,,0.00,,2013-07-28 08:42:00,
2013-07-28 04:53:00,55.0,48.0,29.94,North,-999,-999.0,-999.0,78,0.00,,,0.00,,2013-07-28 08:53:00,
2013-07-28 05:02:00,54.0,48.0,29.94,North,-999,-999.0,-999.0,79,0.00,,,0.00,,2013-07-28 09:02:00,
2013-07-28 05:12:00,54.0,48.0,29.93,North,-999,-999.0,-999.0,79,0.00,,,0.00,,2013-07-28 09:12:00,
2013-07-28 05:22:00,54.0,48.0,29.93,North,-999,-999.0,-999.0,79,0.00,,,0.00,,2013-07-28 09:22:00,
2013-07-28 05:32:00,54.0,48.0,29.93,North,-999,-999.0,-999.0,79,0.00,,,0.00,,2013-07-28 09:32:00,
2013-07-28 05:43:00,54.0,48.0,29.93,North,-999,-999.0,-999.0,79,0.00,,,0.00,,2013-07-28 09:43:00,
2013-07-28 06:22:00,52.0,46.0,29.95,WNW,292,0.0,0.0,79,0.00,,,0.00,,2013-07-28 10:22:00,
2013-07-28 06:33:00,52.0,46.0,29.95,WNW,292,0.0,0.0,79,0.00,,,0.00,,2013-07-28 10:33:00,
2013-07-28 06:42:00,52.0,46.0,29.95,North,-999,-999.0,-999.0,79,0.00,,,0.00,,2013-07-28 10:42:00,
2013-07-28 06:53:00,52.0,46.0,29.95,North,-999,-999.0,-999.0,79,0.00,,,0.00,,2013-07-28 10:53:00,
2013-07-28 07:12:00,52.0,46.0,29.96,West,270,0.0,0.0,79,0.00,,,0.00,,2013-07-28 11:12:00,
2013-07-28 07:22:00,52.0,46.0,29.97,WSW,247,0.0,0.0,80,0.00,,,0.00,,2013-07-28 11:22:00,
2013-07-28 07:33:00,52.0,46.0,29.97,SSW,202,0.0,0.0,80,0.00,,,0.00,,2013-07-28 11:33:00,
2013-07-28 07:43:00,52.0,46.0,29.97,NW,315,0.0,0.0,80,0.00,,,0.00,,2013-07-28 11:43:00,
2013-07-28 07:53:00,52.0,46.0,29.97,SSW,202,0.0,0.0,80,0.00,,,0.00,,2013-07-28 11:53:00,
2013-07-28 08:02:00,52.0,46.0,29.98,West,270,0.0,0.0,81,0.00,,,0.00,,2013-07-28 12:02:00,
2013-07-28 08:12:00,52.0,46.0,29.98,NW,315,0.0,0.0,81,0.00,,,0.00,,2013-07-28 12:12:00,
2013-07-28 08:22:00,52.0,46.0,29.98,WSW,247,0.0,0.0,81,0.00,,,0.00,,2013-07-28 12:22:00,
2013-07-28 08:33:00,52.0,46.0,29.98,North,0,0.0,0.0,81,0.00,,,0.00,,2013-07-28 12:33:00,
2013-07-28 08:43:00,53.0,47.0,29.98,NNW,337,0.0,0.0,81,0.00,,,0.00,,2013-07-28 12:43:00,
2013-07-28 08:53:00,53.0,47.0,29.99,NW,315,0.0,0.0,81,0.00,,,0.00,,2013-07-28 12:53:00,
2013-07-28 09:02:00,53.0,47.0,29.98,West,270,0.0,0.0,81,0.00,,,0.00,,2013-07-28 13:02:00,
2013-07-28 09:12:00,54.0,48.0,29.99,SW,225,0.0,0.0,81,0.00,,,0.00,,2013-07-28 13:12:00,
2013-07-28 09:22:00,54.0,48.0,29.98,West,270,0.0,0.0,81,0.00,,,0.00,,2013-07-28 13:22:00,
2013-07-28 09:32:00,55.0,49.0,29.98,NW,315,0.0,0.0,81,0.00,,,0.00,,2013-07-28 13:32:00,
2013-07-28 09:43:00,55.0,49.0,29.98,SW,225,0.0,0.0,80,0.00,,,0.00,,2013-07-28 13:43:00,
2013-07-28 09:52:00,56.0,50.0,29.98,WNW,292,0.0,0.0,79,0.00,,,0.00,,2013-07-28 13:52:00,
2013-07-28 10:02:00,56.0,49.0,29.98,WNW,292,0.0,0.0,78,0.00,,,0.00,,2013-07-28 14:02:00,
2013-07-28 10:12:00,57.0,50.0,29.98,NW,315,0.0,0.0,77,0.00,,,0.00,,2013-07-28 14:12:00,
2013-07-28 10:23:00,58.0,50.0,29.98,NW,315,0.0,0.0,76,0.00,,,0.00,,2013-07-28 14:23:00,
2013-07-28 10:33:00,58.0,50.0,29.97,SW,225,3.0,3.0,76,0.00,,,0.00,,2013-07-28 14:33:00,
2013-07-28 10:43:00,59.0,51.0,29.98,NW,315,0.0,3.0,75,0.00,,,0.00,,2013-07-28 14:43:00,
2013-07-28 10:53:00,59.0,51.0,29.98,NW,315,0.0,0.0,74,0.00,,,0.00,,2013-07-28 14:53:00,
2013-07-28 11:03:00,60.0,51.0,29.98,South,180,0.0,0.0,73,0.00,,,0.00,,2013-07-28 15:03:00,
2013-07-28 11:13:00,61.0,51.0,29.97,NNW,337,0.0,0.0,70,0.00,,,0.00,,2013-07-28 15:13:00,
2013-07-28 11:22:00,61.0,51.0,29.97,NNW,337,0.0,0.0,70,0.00,,,0.00,,2013-07-28 15:22:00,
2013-07-28 11:32:00,61.0,51.0,29.97,South,180,0.0,0.0,70,0.00,,,0.00,,2013-07-28 15:32:00,
2013-07-28 11:43:00,61.0,50.0,29.97,SSE,157,0.0,0.0,68,0.00,,,0.00,,2013-07-28 15:43:00,
2013-07-28 11:53:00,61.0,50.0,29.97,NW,315,0.0,0.0,68,0.00,,,0.00,,2013-07-28 15:53:00,
2013-07-28 12:02:00,61.0,50.0,29.97,SSW,202,0.0,0.0,67,0.00,,,0.00,,2013-07-28 16:02:00,
2013-07-28 12:12:00,60.0,49.0,29.97,NW,315,0.0,0.0,67,0.00,,,0.00,,2013-07-28 16:12:00,
2013-07-28 12:22:00,61.0,50.0,29.97,North,0,0.0,0.0,66,0.00,,,0.00,,2013-07-28 16:22:00,
2013-07-28 12:33:00,61.0,49.0,29.97,West,270,0.0,2.0,65,0.00,,,0.00,,2013-07-28 16:33:00,
2013-07-28 12:43:00,60.0,48.0,29.97,West,270,0.0,7.0,64,0.00,,,0.00,,2013-07-28 16:43:00,
2013-07-28 12:52:00,60.0,48.0,29.97,SW,225,7.0,7.0,65,0.00,,,0.00,,2013-07-28 16:52:00,
2013-07-28 13:02:00,60.0,49.0,29.96,WSW,247,0.0,7.0,66,0.00,,,0.00,,2013-07-28 17:02:00,
2013-07-28 13:13:00,61.0,48.0,29.96,SW,225,10.0,10.0,63,0.00,,,0.00,,2013-07-28 17:13:00,
2013-07-28 13:23:00,61.0,48.0,29.97,SW,225,2.0,2.0,62,0.00,,,0.00,,2013-07-28 17:23:00,
2013-07-28 13:32:00,61.0,48.0,29.96,ENE,67,0.0,2.0,63,0.00,,,0.00,,2013-07-28 17:32:00,
2013-07-28 13:43:00,62.0,48.0,29.96,NW,315,3.0,3.0,61,0.00,,,0.00,,2013-07-28 17:43:00,
2013-07-28 13:53:00,62.0,48.0,29.96,NW,315,0.0,5.0,60,0.00,,,0.00,,2013-07-28 17:53:00,
2013-07-28 14:03:00,61.0,47.0,29.96,SW,225,0.0,0.0,60,0.00,,,0.00,,2013-07-28 18:03:00,
2013-07-28 15:33:00,61.0,47.0,29.97,NW,315,0.0,0.0,61,0.00,,,0.00,,2013-07-28 19:33:00,
2013-07-28 15:43:00,61.0,48.0,29.98,NNW,337,0.0,2.0,62,0.00,,,0.00,,2013-07-28 19:43:00,
2013-07-28 15:52:00,61.0,48.0,29.98,NNW,337,0.0,2.0,62,0.00,,,0.00,,2013-07-28 19:52:00,
2013-07-28 16:02:00,62.0,49.0,29.98,NW,315,0.0,0.0,63,0.00,,,0.00,,2013-07-28 20:02:00,
2013-07-28 16:13:00,63.0,50.0,29.98,NW,315,0.0,0.0,63,0.00,,,0.00,,2013-07-28 20:13:00,
2013-07-28 16:23:00,64.0,51.0,29.98,NW,315,0.0,0.0,63,0.00,,,0.00,,2013-07-28 20:23:00,
2013-07-28 16:33:00,65.0,52.0,29.97,North,0,0.0,0.0,62,0.00,,,0.00,,2013-07-28 20:33:00,
2013-07-28 16:43:00,65.0,52.0,29.97,NNW,337,0.0,0.0,62,0.00,,,0.00,,2013-07-28 20:43:00,
2013-07-28 16:52:00,66.0,53.0,29.98,East,90,0.0,0.0,62,0.00,,,0.00,,2013-07-28 20:52:00,
2013-07-28 17:03:00,68.0,54.0,29.98,NNW,337,0.0,0.0,60,0.00,,,0.00,,2013-07-28 21:03:00,
2013-07-28 17:13:00,68.0,54.0,29.98,NNW,337,2.0,2.0,60,0.00,,,0.00,,2013-07-28 21:13:00,
2013-07-28 17:22:00,68.0,54.0,29.98,NW,315,1.0,1.0,61,0.00,,,0.00,,2013-07-28 21:22:00,
2013-07-28 17:33:00,68.0,55.0,29.99,SW,225,0.0,5.0,63,0.00,,,0.00,,2013-07-28 21:33:00,
2013-07-28 17:44:00,68.0,54.0,29.99,WNW,292,0.0,0.0,61,0.00,,,0.00,,2013-07-28 21:44:00,
2013-07-28 17:52:00,68.0,54.0,29.99,NW,315,0.0,0.0,61,0.00,,,0.00,,2013-07-28 21:52:00,
2013-07-28 18:02:00,68.0,54.0,30.00,NNW,337,0.0,0.0,60,0.00,,,0.00,,2013-07-28 22:02:00,
2013-07-28 18:12:00,68.0,54.0,30.00,NW,315,0.0,0.0,60,0.00,,,0.00,,2013-07-28 22:12:00,
2013-07-28 18:22:00,68.0,54.0,30.00,NW,315,0.0,0.0,60,0.00,,,0.00,,2013-07-28 22:22:00,
2013-07-28 18:32:00,68.0,53.0,30.00,NW,315,0.0,0.0,59,0.00,,,0.00,,2013-07-28 22:32:00,
2013-07-28 18:43:00,68.0,53.0,30.00,NW,315,0.0,0.0,59,0.00,,,0.00,,2013-07-28 22:43:00,
2013-07-28 18:52:00,68.0,53.0,30.00,NW,315,0.0,0.0,59,0.00,,,0.00,,2013-07-28 22:52:00,
2013-07-28 19:03:00,68.0,53.0,30.00,WNW,292,0.0,0.0,58,0.00,,,0.00,,2013-07-28 23:03:00,
2013-07-28 19:12:00,68.0,53.0,30.01,NW,315,0.0,0.0,58,0.00,,,0.00,,2013-07-28 23:12:00,
2013-07-28 19:22:00,69.0,54.0,30.00,NW,315,0.0,0.0,58,0.00,,,0.00,,2013-07-28 23:22:00,
2013-07-28 19:32:00,68.0,52.0,30.00,North,0,0.0,0.0,57,0.00,,,0.00,,2013-07-28 23:32:00,
2013-07-28 19:43:00,68.0,52.0,30.00,NW,315,0.0,0.0,57,0.00,,,0.00,,2013-07-28 23:43:00,
2013-07-28 19:53:00,68.0,53.0,30.01,NW,315,0.0,0.0,58,0.00,,,0.00,,2013-07-28 23:53:00,
2013-07-28 20:03:00,68.0,52.0,30.01,North,0,0.0,0.0,57,0.00,,,0.00,,2013-07-29 00:03:00,
2013-07-28 20:22:00,68.0,53.0,30.02,WNW,292,0.0,0.0,58,0.00,,,0.00,,2013-07-29 00:22:00,
2013-07-28 20:32:00,68.0,53.0,30.02,WNW,292,0.0,0.0,58,0.00,,,0.00,,2013-07-29 00:32:00,
2013-07-28 20:43:00,67.0,52.0,30.02,WNW,292,0.0,0.0,58,0.00,,,0.00,,2013-07-29 00:43:00,
2013-07-28 20:52:00,67.0,52.0,30.03,WNW,292,0.0,0.0,59,0.00,,,0.00,,2013-07-29 00:52:00,
2013-07-28 21:02:00,67.0,52.0,30.03,North,-999,-999.0,-999.0,59,0.00,,,0.00,,2013-07-29 01:02:00,
2013-07-28 21:14:00,67.0,52.0,30.03,North,-999,-999.0,-999.0,59,0.00,,,0.00,,2013-07-29 01:14:00,
2013-07-28 21:28:00,67.0,52.0,30.03,North,-999,-999.0,-999.0,59,0.00,,,0.00,,2013-07-29 01:28:00,
2013-07-28 21:35:00,67.0,52.0,30.03,North,-999,-999.0,-999.0,59,0.00,,,0.00,,2013-07-29 01:35:00,